KMUO/MUO METAR and TAF weather

Enter ICAO airport designator
Station Type Date Time Source
KMUO METAR 2020/09/18 15:37 UTC NOAA

KMUO 181537Z AUTO 14011G18KT 10SM CLR 19/01 A2998 RMK AO2 WSHFT 35 SLP131 $


Station Type Date Time Source
KMUO Decoded METAR 2020/09/18 15:37 UTC NOAA

Mountain Home Air Force Base, ID, United States (KMUO) 43-03N 115-52W
Sep 18, 2020 - 11:37 AM EDT / 2020.09.18 1537 UTC
Wind: from the SE (140 degrees) at 13 MPH (11 KT) gusting to 21 MPH (18 KT):0
Visibility: 10 mile(s):0
Sky conditions: clear
Temperature: 66 F (19 C)
Dew Point: 33 F (1 C)
Relative Humidity: 29%
Pressure (altimeter): 29.98 in. Hg (1015 hPa)
ob: KMUO 181537Z AUTO 14011G18KT 10SM CLR 19/01 A2998 RMK AO2 WSHFT 35 SLP131
cycle: 15

Station Type Date Time Source
KMUO TAF 2020/09/18 10:03 UTC NOAA

TAF KMUO 181000Z 1810/1916 VRB06KT 8000 FU SCT150 QNH2991INS
BECMG 1815/1816 12012G18KT 8000 FU VCSH SCT130 BKN150 QNH2988INS
BECMG 1817/1818 12012G20KT 9000 -SHRA BKN100 QNH2980INS
TEMPO 1822/1902 VRB15G25KT VCTS SCT060CB
BECMG 1904/1905 12009KT 9000 FU SCT060 SCT100 QNH2986INS
BECMG 1910/1911 32009KT 9000 FU FEW060 SCT100 QNH2988INS TX29/1823Z TN11/1813Z

Example: see airport list